sensor_id;sensor_type;location;lat;lon;timestamp;P1;durP1;ratioP1;P2;durP2;ratioP2
9906;SDS011;4992;51.628;6.664;2023-02-05T00:01:12;32.77;;;13.60;;
9906;SDS011;4992;51.628;6.664;2023-02-05T00:03:37;32.50;;;14.07;;
9906;SDS011;4992;51.628;6.664;2023-02-05T00:06:03;32.70;;;16.23;;
9906;SDS011;4992;51.628;6.664;2023-02-05T00:08:29;41.37;;;19.40;;
9906;SDS011;4992;51.628;6.664;2023-02-05T00:10:55;41.47;;;17.93;;
9906;SDS011;4992;51.628;6.664;2023-02-05T00:13:21;37.70;;;16.03;;
9906;SDS011;4992;51.628;6.664;2023-02-05T00:15:47;35.90;;;16.60;;
9906;SDS011;4992;51.628;6.664;2023-02-05T00:18:12;35.53;;;15.13;;
9906;SDS011;4992;51.628;6.664;2023-02-05T00:20:38;36.53;;;13.03;;
9906;SDS011;4992;51.628;6.664;2023-02-05T00:23:04;35.53;;;14.30;;
9906;SDS011;4992;51.628;6.664;2023-02-05T00:25:29;27.57;;;14.77;;
9906;SDS011;4992;51.628;6.664;2023-02-05T00:27:55;31.20;;;13.53;;
9906;SDS011;4992;51.628;6.664;2023-02-05T00:30:21;32.00;;;14.40;;
9906;SDS011;4992;51.628;6.664;2023-02-05T00:32:46;29.27;;;14.23;;
9906;SDS011;4992;51.628;6.664;2023-02-05T00:35:12;35.93;;;14.97;;
9906;SDS011;4992;51.628;6.664;2023-02-05T00:37:37;38.83;;;13.63;;
9906;SDS011;4992;51.628;6.664;2023-02-05T00:40:03;29.77;;;12.70;;
9906;SDS011;4992;51.628;6.664;2023-02-05T00:42:29;27.87;;;11.87;;
9906;SDS011;4992;51.628;6.664;2023-02-05T00:44:55;20.03;;;10.80;;
9906;SDS011;4992;51.628;6.664;2023-02-05T00:47:20;25.50;;;11.13;;
9906;SDS011;4992;51.628;6.664;2023-02-05T00:49:46;20.43;;;9.80;;
9906;SDS011;4992;51.628;6.664;2023-02-05T00:52:11;24.40;;;11.30;;
9906;SDS011;4992;51.628;6.664;2023-02-05T00:54:37;22.67;;;11.37;;
9906;SDS011;4992;51.628;6.664;2023-02-05T00:57:02;28.90;;;11.37;;
9906;SDS011;4992;51.628;6.664;2023-02-05T00:59:28;23.87;;;10.30;;
9906;SDS011;4992;51.628;6.664;2023-02-05T01:01:54;27.67;;;11.23;;
9906;SDS011;4992;51.628;6.664;2023-02-05T01:04:19;25.70;;;11.40;;
9906;SDS011;4992;51.628;6.664;2023-02-05T01:06:45;23.90;;;10.43;;
9906;SDS011;4992;51.628;6.664;2023-02-05T01:09:10;21.57;;;10.23;;
9906;SDS011;4992;51.628;6.664;2023-02-05T01:11:36;19.13;;;10.47;;
9906;SDS011;4992;51.628;6.664;2023-02-05T01:14:01;18.83;;;10.13;;
9906;SDS011;4992;51.628;6.664;2023-02-05T01:16:27;20.07;;;10.80;;
9906;SDS011;4992;51.628;6.664;2023-02-05T01:18:52;25.73;;;11.33;;
9906;SDS011;4992;51.628;6.664;2023-02-05T01:21:20;25.10;;;10.13;;
9906;SDS011;4992;51.628;6.664;2023-02-05T01:23:48;22.13;;;10.33;;
9906;SDS011;4992;51.628;6.664;2023-02-05T01:26:14;31.50;;;10.80;;
9906;SDS011;4992;51.628;6.664;2023-02-05T01:28:40;27.03;;;10.80;;
9906;SDS011;4992;51.628;6.664;2023-02-05T01:31:07;25.60;;;11.03;;
9906;SDS011;4992;51.628;6.664;2023-02-05T01:33:32;26.77;;;10.73;;
9906;SDS011;4992;51.628;6.664;2023-02-05T01:35:58;22.17;;;10.13;;
9906;SDS011;4992;51.628;6.664;2023-02-05T01:38:23;38.23;;;11.67;;
9906;SDS011;4992;51.628;6.664;2023-02-05T01:40:49;29.23;;;10.73;;
9906;SDS011;4992;51.628;6.664;2023-02-05T01:43:15;26.83;;;9.73;;
9906;SDS011;4992;51.628;6.664;2023-02-05T01:45:46;19.23;;;9.70;;
9906;SDS011;4992;51.628;6.664;2023-02-05T01:48:28;30.13;;;11.67;;
9906;SDS011;4992;51.628;6.664;2023-02-05T01:51:00;27.00;;;9.87;;
9906;SDS011;4992;51.628;6.664;2023-02-05T01:53:31;27.47;;;10.00;;
9906;SDS011;4992;51.628;6.664;2023-02-05T01:56:00;25.07;;;10.17;;
9906;SDS011;4992;51.628;6.664;2023-02-05T01:58:39;29.30;;;11.03;;
9906;SDS011;4992;51.628;6.664;2023-02-05T02:01:10;17.70;;;9.97;;
9906;SDS011;4992;51.628;6.664;2023-02-05T02:03:36;23.77;;;10.33;;
9906;SDS011;4992;51.628;6.664;2023-02-05T02:06:04;20.97;;;10.17;;
9906;SDS011;4992;51.628;6.664;2023-02-05T02:08:30;25.97;;;10.80;;
9906;SDS011;4992;51.628;6.664;2023-02-05T02:10:57;25.33;;;9.87;;
9906;SDS011;4992;51.628;6.664;2023-02-05T02:13:26;26.43;;;9.97;;
9906;SDS011;4992;51.628;6.664;2023-02-05T02:15:55;23.80;;;9.07;;
9906;SDS011;4992;51.628;6.664;2023-02-05T02:18:21;24.50;;;10.30;;
9906;SDS011;4992;51.628;6.664;2023-02-05T02:21:03;26.20;;;10.43;;
9906;SDS011;4992;51.628;6.664;2023-02-05T02:29:26;22.80;;;10.20;;
9906;SDS011;4992;51.628;6.664;2023-02-05T02:32:20;27.47;;;11.13;;
9906;SDS011;4992;51.628;6.664;2023-02-05T02:34:48;35.70;;;11.40;;
9906;SDS011;4992;51.628;6.664;2023-02-05T02:40:20;23.37;;;10.07;;
9906;SDS011;4992;51.628;6.664;2023-02-05T02:45:21;17.93;;;8.97;;
9906;SDS011;4992;51.628;6.664;2023-02-05T02:47:52;33.30;;;10.50;;
9906;SDS011;4992;51.628;6.664;2023-02-05T02:50:29;30.80;;;10.80;;
9906;SDS011;4992;51.628;6.664;2023-02-05T02:53:03;29.20;;;10.13;;
9906;SDS011;4992;51.628;6.664;2023-02-05T02:55:34;30.37;;;11.13;;
9906;SDS011;4992;51.628;6.664;2023-02-05T02:58:02;29.30;;;12.00;;
9906;SDS011;4992;51.628;6.664;2023-02-05T03:00:32;28.37;;;11.83;;
9906;SDS011;4992;51.628;6.664;2023-02-05T03:02:59;34.50;;;12.67;;
9906;SDS011;4992;51.628;6.664;2023-02-05T03:05:29;26.97;;;11.93;;
9906;SDS011;4992;51.628;6.664;2023-02-05T03:07:58;30.97;;;12.33;;
9906;SDS011;4992;51.628;6.664;2023-02-05T03:13:07;22.03;;;11.37;;
9906;SDS011;4992;51.628;6.664;2023-02-05T03:15:34;33.00;;;12.23;;
9906;SDS011;4992;51.628;6.664;2023-02-05T03:18:01;33.00;;;12.20;;
9906;SDS011;4992;51.628;6.664;2023-02-05T03:20:28;34.67;;;14.43;;
9906;SDS011;4992;51.628;6.664;2023-02-05T03:22:58;29.50;;;13.70;;
9906;SDS011;4992;51.628;6.664;2023-02-05T03:25:24;36.70;;;14.70;;
9906;SDS011;4992;51.628;6.664;2023-02-05T03:27:52;38.10;;;16.53;;
9906;SDS011;4992;51.628;6.664;2023-02-05T03:30:18;41.70;;;16.27;;
9906;SDS011;4992;51.628;6.664;2023-02-05T03:35:46;36.40;;;17.13;;
9906;SDS011;4992;51.628;6.664;2023-02-05T03:44:09;43.23;;;19.23;;
9906;SDS011;4992;51.628;6.664;2023-02-05T03:46:44;40.90;;;19.97;;
9906;SDS011;4992;51.628;6.664;2023-02-05T03:49:34;45.30;;;20.30;;
9906;SDS011;4992;51.628;6.664;2023-02-05T03:52:12;52.50;;;21.90;;
9906;SDS011;4992;51.628;6.664;2023-02-05T03:54:43;49.00;;;21.13;;
9906;SDS011;4992;51.628;6.664;2023-02-05T03:57:23;48.23;;;22.07;;
9906;SDS011;4992;51.628;6.664;2023-02-05T04:00:04;52.27;;;22.10;;
9906;SDS011;4992;51.628;6.664;2023-02-05T04:02:30;50.00;;;21.20;;
9906;SDS011;4992;51.628;6.664;2023-02-05T04:04:56;47.83;;;21.93;;
9906;SDS011;4992;51.628;6.664;2023-02-05T04:07:21;57.67;;;23.77;;
9906;SDS011;4992;51.628;6.664;2023-02-05T04:09:47;49.83;;;22.33;;
9906;SDS011;4992;51.628;6.664;2023-02-05T04:12:12;48.43;;;23.20;;
9906;SDS011;4992;51.628;6.664;2023-02-05T04:14:38;56.67;;;24.70;;
9906;SDS011;4992;51.628;6.664;2023-02-05T04:17:03;52.93;;;23.23;;
9906;SDS011;4992;51.628;6.664;2023-02-05T04:19:29;48.83;;;23.70;;
9906;SDS011;4992;51.628;6.664;2023-02-05T04:21:55;54.67;;;24.90;;
9906;SDS011;4992;51.628;6.664;2023-02-05T04:24:20;55.77;;;25.17;;
9906;SDS011;4992;51.628;6.664;2023-02-05T04:26:45;52.57;;;25.47;;
9906;SDS011;4992;51.628;6.664;2023-02-05T04:29:11;54.90;;;24.23;;
9906;SDS011;4992;51.628;6.664;2023-02-05T04:31:36;53.77;;;26.23;;
9906;SDS011;4992;51.628;6.664;2023-02-05T04:34:02;54.60;;;26.03;;
9906;SDS011;4992;51.628;6.664;2023-02-05T04:36:27;56.57;;;25.97;;
9906;SDS011;4992;51.628;6.664;2023-02-05T04:38:53;61.87;;;25.87;;
9906;SDS011;4992;51.628;6.664;2023-02-05T04:41:18;72.57;;;28.73;;
9906;SDS011;4992;51.628;6.664;2023-02-05T04:43:44;59.50;;;27.37;;
9906;SDS011;4992;51.628;6.664;2023-02-05T04:46:10;64.53;;;29.20;;
9906;SDS011;4992;51.628;6.664;2023-02-05T04:48:36;70.60;;;29.77;;
9906;SDS011;4992;51.628;6.664;2023-02-05T04:51:05;73.73;;;32.23;;
9906;SDS011;4992;51.628;6.664;2023-02-05T04:53:32;65.03;;;31.60;;
9906;SDS011;4992;51.628;6.664;2023-02-05T04:56:08;82.03;;;32.67;;
9906;SDS011;4992;51.628;6.664;2023-02-05T04:58:36;79.80;;;32.87;;
9906;SDS011;4992;51.628;6.664;2023-02-05T05:01:02;74.23;;;31.53;;
9906;SDS011;4992;51.628;6.664;2023-02-05T05:03:28;77.67;;;33.17;;
9906;SDS011;4992;51.628;6.664;2023-02-05T05:05:53;85.57;;;33.80;;
9906;SDS011;4992;51.628;6.664;2023-02-05T05:08:19;76.67;;;31.60;;
9906;SDS011;4992;51.628;6.664;2023-02-05T05:10:45;72.60;;;32.77;;
9906;SDS011;4992;51.628;6.664;2023-02-05T05:13:10;75.00;;;33.93;;
9906;SDS011;4992;51.628;6.664;2023-02-05T05:15:36;81.13;;;33.83;;
9906;SDS011;4992;51.628;6.664;2023-02-05T05:18:03;81.53;;;34.07;;
9906;SDS011;4992;51.628;6.664;2023-02-05T05:20:28;80.60;;;34.27;;
9906;SDS011;4992;51.628;6.664;2023-02-05T05:22:54;75.50;;;32.90;;
9906;SDS011;4992;51.628;6.664;2023-02-05T05:25:20;77.00;;;33.17;;
9906;SDS011;4992;51.628;6.664;2023-02-05T05:27:46;75.77;;;34.43;;
9906;SDS011;4992;51.628;6.664;2023-02-05T05:30:12;76.77;;;32.70;;
9906;SDS011;4992;51.628;6.664;2023-02-05T05:32:38;77.00;;;35.43;;
9906;SDS011;4992;51.628;6.664;2023-02-05T05:35:03;69.03;;;33.20;;
9906;SDS011;4992;51.628;6.664;2023-02-05T05:37:29;73.60;;;33.43;;
9906;SDS011;4992;51.628;6.664;2023-02-05T05:39:55;74.80;;;34.37;;
9906;SDS011;4992;51.628;6.664;2023-02-05T05:42:39;72.87;;;32.40;;
9906;SDS011;4992;51.628;6.664;2023-02-05T05:45:23;69.80;;;34.50;;
9906;SDS011;4992;51.628;6.664;2023-02-05T05:47:49;73.67;;;33.30;;
9906;SDS011;4992;51.628;6.664;2023-02-05T05:50:14;62.23;;;31.30;;
9906;SDS011;4992;51.628;6.664;2023-02-05T05:52:40;71.13;;;33.00;;
9906;SDS011;4992;51.628;6.664;2023-02-05T05:55:05;63.70;;;33.20;;
9906;SDS011;4992;51.628;6.664;2023-02-05T05:57:31;65.27;;;32.47;;
9906;SDS011;4992;51.628;6.664;2023-02-05T05:59:57;69.80;;;33.27;;
9906;SDS011;4992;51.628;6.664;2023-02-05T06:02:22;70.43;;;34.10;;
9906;SDS011;4992;51.628;6.664;2023-02-05T06:04:48;65.07;;;33.27;;
9906;SDS011;4992;51.628;6.664;2023-02-05T06:07:13;60.47;;;31.23;;
9906;SDS011;4992;51.628;6.664;2023-02-05T06:09:39;71.47;;;33.40;;
9906;SDS011;4992;51.628;6.664;2023-02-05T06:12:05;69.27;;;32.77;;
9906;SDS011;4992;51.628;6.664;2023-02-05T06:14:30;65.70;;;33.07;;
9906;SDS011;4992;51.628;6.664;2023-02-05T06:16:56;65.13;;;33.40;;
9906;SDS011;4992;51.628;6.664;2023-02-05T06:19:22;60.80;;;32.70;;
9906;SDS011;4992;51.628;6.664;2023-02-05T06:21:47;61.53;;;32.77;;
9906;SDS011;4992;51.628;6.664;2023-02-05T06:24:13;59.30;;;31.63;;
9906;SDS011;4992;51.628;6.664;2023-02-05T06:26:38;60.77;;;31.97;;
9906;SDS011;4992;51.628;6.664;2023-02-05T06:29:04;61.47;;;33.70;;
9906;SDS011;4992;51.628;6.664;2023-02-05T06:31:30;56.70;;;30.37;;
9906;SDS011;4992;51.628;6.664;2023-02-05T06:33:55;56.40;;;30.80;;
9906;SDS011;4992;51.628;6.664;2023-02-05T06:36:21;58.57;;;32.30;;
9906;SDS011;4992;51.628;6.664;2023-02-05T06:38:47;60.53;;;30.43;;
9906;SDS011;4992;51.628;6.664;2023-02-05T06:41:12;54.37;;;31.20;;
9906;SDS011;4992;51.628;6.664;2023-02-05T06:43:37;54.97;;;30.50;;
9906;SDS011;4992;51.628;6.664;2023-02-05T06:46:03;45.20;;;27.67;;
9906;SDS011;4992;51.628;6.664;2023-02-05T06:48:28;48.20;;;29.63;;
9906;SDS011;4992;51.628;6.664;2023-02-05T06:50:54;46.33;;;27.80;;
9906;SDS011;4992;51.628;6.664;2023-02-05T06:53:20;45.13;;;26.83;;
9906;SDS011;4992;51.628;6.664;2023-02-05T06:55:45;46.23;;;27.33;;
9906;SDS011;4992;51.628;6.664;2023-02-05T06:58:11;46.00;;;26.73;;
9906;SDS011;4992;51.628;6.664;2023-02-05T07:00:37;39.93;;;25.60;;
9906;SDS011;4992;51.628;6.664;2023-02-05T07:03:02;41.20;;;25.57;;
9906;SDS011;4992;51.628;6.664;2023-02-05T07:05:28;39.07;;;24.93;;
9906;SDS011;4992;51.628;6.664;2023-02-05T07:07:54;41.07;;;25.47;;
9906;SDS011;4992;51.628;6.664;2023-02-05T07:10:19;36.43;;;23.93;;
9906;SDS011;4992;51.628;6.664;2023-02-05T07:12:45;36.57;;;22.90;;
9906;SDS011;4992;51.628;6.664;2023-02-05T07:15:10;37.80;;;25.20;;
9906;SDS011;4992;51.628;6.664;2023-02-05T07:17:36;42.07;;;26.20;;
9906;SDS011;4992;51.628;6.664;2023-02-05T07:20:03;34.90;;;22.30;;
9906;SDS011;4992;51.628;6.664;2023-02-05T07:22:29;30.83;;;21.13;;
9906;SDS011;4992;51.628;6.664;2023-02-05T07:24:54;31.47;;;21.33;;
9906;SDS011;4992;51.628;6.664;2023-02-05T07:27:20;25.40;;;19.47;;
9906;SDS011;4992;51.628;6.664;2023-02-05T07:29:46;25.97;;;17.67;;
9906;SDS011;4992;51.628;6.664;2023-02-05T07:32:11;27.63;;;18.23;;
9906;SDS011;4992;51.628;6.664;2023-02-05T07:34:37;25.13;;;17.47;;
9906;SDS011;4992;51.628;6.664;2023-02-05T07:37:02;23.37;;;16.10;;
9906;SDS011;4992;51.628;6.664;2023-02-05T07:39:28;23.90;;;16.33;;
9906;SDS011;4992;51.628;6.664;2023-02-05T07:41:53;23.73;;;15.97;;
9906;SDS011;4992;51.628;6.664;2023-02-05T07:44:19;21.53;;;15.63;;
9906;SDS011;4992;51.628;6.664;2023-02-05T07:46:45;19.63;;;13.80;;
9906;SDS011;4992;51.628;6.664;2023-02-05T07:49:11;18.23;;;13.30;;
9906;SDS011;4992;51.628;6.664;2023-02-05T07:51:36;17.20;;;12.30;;
9906;SDS011;4992;51.628;6.664;2023-02-05T07:54:06;15.00;;;11.27;;
9906;SDS011;4992;51.628;6.664;2023-02-05T07:56:32;12.90;;;10.13;;
9906;SDS011;4992;51.628;6.664;2023-02-05T07:58:58;11.43;;;7.87;;
9906;SDS011;4992;51.628;6.664;2023-02-05T08:01:23;7.97;;;6.50;;
9906;SDS011;4992;51.628;6.664;2023-02-05T08:03:49;7.63;;;4.27;;
9906;SDS011;4992;51.628;6.664;2023-02-05T08:06:14;8.73;;;6.27;;
9906;SDS011;4992;51.628;6.664;2023-02-05T08:08:40;4.47;;;3.00;;
9906;SDS011;4992;51.628;6.664;2023-02-05T08:11:06;5.57;;;3.00;;
9906;SDS011;4992;51.628;6.664;2023-02-05T08:13:32;4.07;;;1.37;;
9906;SDS011;4992;51.628;6.664;2023-02-05T08:15:58;4.33;;;1.23;;
9906;SDS011;4992;51.628;6.664;2023-02-05T08:18:24;1.93;;;1.00;;
9906;SDS011;4992;51.628;6.664;2023-02-05T08:20:53;1.50;;;1.03;;
9906;SDS011;4992;51.628;6.664;2023-02-05T08:23:19;4.20;;;0.90;;
9906;SDS011;4992;51.628;6.664;2023-02-05T08:25:45;2.50;;;1.10;;
9906;SDS011;4992;51.628;6.664;2023-02-05T08:28:11;5.40;;;1.00;;
9906;SDS011;4992;51.628;6.664;2023-02-05T08:30:37;3.57;;;0.73;;
9906;SDS011;4992;51.628;6.664;2023-02-05T08:33:03;2.70;;;0.60;;
9906;SDS011;4992;51.628;6.664;2023-02-05T08:35:28;5.30;;;1.23;;
9906;SDS011;4992;51.628;6.664;2023-02-05T08:37:54;2.97;;;0.40;;
9906;SDS011;4992;51.628;6.664;2023-02-05T08:40:19;4.53;;;0.57;;
9906;SDS011;4992;51.628;6.664;2023-02-05T08:42:45;3.23;;;0.70;;
9906;SDS011;4992;51.628;6.664;2023-02-05T08:45:12;0.93;;;0.40;;
9906;SDS011;4992;51.628;6.664;2023-02-05T08:47:38;4.90;;;0.90;;
9906;SDS011;4992;51.628;6.664;2023-02-05T08:50:04;2.57;;;0.40;;
9906;SDS011;4992;51.628;6.664;2023-02-05T08:52:30;2.07;;;0.40;;
9906;SDS011;4992;51.628;6.664;2023-02-05T08:54:56;3.20;;;0.60;;
9906;SDS011;4992;51.628;6.664;2023-02-05T08:57:25;3.50;;;0.60;;
9906;SDS011;4992;51.628;6.664;2023-02-05T08:59:52;3.83;;;0.70;;
9906;SDS011;4992;51.628;6.664;2023-02-05T09:02:17;4.90;;;1.10;;
9906;SDS011;4992;51.628;6.664;2023-02-05T09:04:43;4.87;;;1.00;;
9906;SDS011;4992;51.628;6.664;2023-02-05T09:07:08;9.00;;;0.97;;
9906;SDS011;4992;51.628;6.664;2023-02-05T09:09:34;3.57;;;0.77;;
9906;SDS011;4992;51.628;6.664;2023-02-05T09:12:00;9.07;;;1.37;;
9906;SDS011;4992;51.628;6.664;2023-02-05T09:14:26;8.27;;;1.40;;
9906;SDS011;4992;51.628;6.664;2023-02-05T09:16:52;9.63;;;2.10;;
9906;SDS011;4992;51.628;6.664;2023-02-05T09:19:18;4.30;;;1.10;;
9906;SDS011;4992;51.628;6.664;2023-02-05T09:21:43;7.50;;;1.30;;
9906;SDS011;4992;51.628;6.664;2023-02-05T09:24:09;7.10;;;1.20;;
9906;SDS011;4992;51.628;6.664;2023-02-05T09:26:34;7.23;;;1.40;;
9906;SDS011;4992;51.628;6.664;2023-02-05T09:29:01;7.37;;;1.17;;
9906;SDS011;4992;51.628;6.664;2023-02-05T09:31:27;9.10;;;2.10;;
9906;SDS011;4992;51.628;6.664;2023-02-05T09:33:52;10.77;;;1.50;;
9906;SDS011;4992;51.628;6.664;2023-02-05T09:36:20;7.10;;;1.30;;
9906;SDS011;4992;51.628;6.664;2023-02-05T09:38:46;9.10;;;1.40;;
9906;SDS011;4992;51.628;6.664;2023-02-05T09:43:43;12.20;;;1.70;;
9906;SDS011;4992;51.628;6.664;2023-02-05T09:56:59;10.68;;;1.65;;
9906;SDS011;4992;51.628;6.664;2023-02-05T09:59:30;9.00;;;1.40;;
9906;SDS011;4992;51.628;6.664;2023-02-05T10:01:58;6.10;;;1.20;;
9906;SDS011;4992;51.628;6.664;2023-02-05T10:04:26;6.23;;;1.27;;
9906;SDS011;4992;51.628;6.664;2023-02-05T10:07:15;4.80;;;0.93;;
9906;SDS011;4992;51.628;6.664;2023-02-05T10:09:45;6.70;;;1.00;;
9906;SDS011;4992;51.628;6.664;2023-02-05T10:12:39;8.07;;;1.20;;
9906;SDS011;4992;51.628;6.664;2023-02-05T10:15:30;7.43;;;1.30;;
9906;SDS011;4992;51.628;6.664;2023-02-05T10:32:32;9.00;;;2.17;;
9906;SDS011;4992;51.628;6.664;2023-02-05T10:35:23;12.27;;;4.37;;
9906;SDS011;4992;51.628;6.664;2023-02-05T10:38:03;11.37;;;1.90;;
9906;SDS011;4992;51.628;6.664;2023-02-05T10:40:36;10.53;;;1.70;;
9906;SDS011;4992;51.628;6.664;2023-02-05T10:45:54;6.90;;;2.07;;
9906;SDS011;4992;51.628;6.664;2023-02-05T10:48:31;9.43;;;1.70;;
9906;SDS011;4992;51.628;6.664;2023-02-05T10:51:19;9.07;;;2.00;;
9906;SDS011;4992;51.628;6.664;2023-02-05T10:53:51;6.90;;;1.67;;
9906;SDS011;4992;51.628;6.664;2023-02-05T10:56:17;11.97;;;1.67;;
9906;SDS011;4992;51.628;6.664;2023-02-05T10:59:04;8.30;;;1.63;;
9906;SDS011;4992;51.628;6.664;2023-02-05T11:01:31;10.00;;;1.80;;
9906;SDS011;4992;51.628;6.664;2023-02-05T11:06:43;12.37;;;2.13;;
9906;SDS011;4992;51.628;6.664;2023-02-05T11:11:49;11.13;;;2.37;;
9906;SDS011;4992;51.628;6.664;2023-02-05T11:14:19;13.97;;;2.10;;
9906;SDS011;4992;51.628;6.664;2023-02-05T11:16:49;13.97;;;2.53;;
9906;SDS011;4992;51.628;6.664;2023-02-05T11:19:22;15.30;;;2.70;;
9906;SDS011;4992;51.628;6.664;2023-02-05T11:21:52;8.67;;;1.90;;
9906;SDS011;4992;51.628;6.664;2023-02-05T11:29:40;10.17;;;1.80;;
9906;SDS011;4992;51.628;6.664;2023-02-05T11:32:51;7.13;;;1.83;;
9906;SDS011;4992;51.628;6.664;2023-02-05T11:35:16;10.13;;;2.37;;
9906;SDS011;4992;51.628;6.664;2023-02-05T11:37:48;7.23;;;2.13;;
9906;SDS011;4992;51.628;6.664;2023-02-05T11:40:35;6.00;;;1.60;;
9906;SDS011;4992;51.628;6.664;2023-02-05T11:43:03;8.57;;;1.53;;
9906;SDS011;4992;51.628;6.664;2023-02-05T11:45:31;8.37;;;1.33;;
9906;SDS011;4992;51.628;6.664;2023-02-05T11:48:01;8.57;;;1.70;;
9906;SDS011;4992;51.628;6.664;2023-02-05T11:50:44;8.93;;;2.47;;
9906;SDS011;4992;51.628;6.664;2023-02-05T11:53:13;11.30;;;1.80;;
9906;SDS011;4992;51.628;6.664;2023-02-05T11:55:40;11.67;;;1.63;;
9906;SDS011;4992;51.628;6.664;2023-02-05T11:58:17;5.67;;;0.90;;
9906;SDS011;4992;51.628;6.664;2023-02-05T12:00:52;5.90;;;1.33;;
9906;SDS011;4992;51.628;6.664;2023-02-05T12:03:21;7.73;;;1.10;;
9906;SDS011;4992;51.628;6.664;2023-02-05T12:05:56;7.03;;;1.80;;
9906;SDS011;4992;51.628;6.664;2023-02-05T12:08:44;5.20;;;0.90;;
9906;SDS011;4992;51.628;6.664;2023-02-05T12:17:23;5.70;;;1.43;;
9906;SDS011;4992;51.628;6.664;2023-02-05T12:23:21;10.77;;;1.87;;
9906;SDS011;4992;51.628;6.664;2023-02-05T12:29:28;6.57;;;0.90;;
9906;SDS011;4992;51.628;6.664;2023-02-05T12:41:01;6.05;;;1.48;;
9906;SDS011;4992;51.628;6.664;2023-02-05T12:43:42;6.17;;;1.50;;
9906;SDS011;4992;51.628;6.664;2023-02-05T12:49:04;6.53;;;1.53;;
9906;SDS011;4992;51.628;6.664;2023-02-05T12:54:29;8.00;;;1.63;;
9906;SDS011;4992;51.628;6.664;2023-02-05T12:57:19;8.13;;;1.33;;
9906;SDS011;4992;51.628;6.664;2023-02-05T12:59:52;6.33;;;1.20;;
9906;SDS011;4992;51.628;6.664;2023-02-05T13:02:33;8.30;;;1.40;;
9906;SDS011;4992;51.628;6.664;2023-02-05T13:07:46;5.10;;;1.27;;
9906;SDS011;4992;51.628;6.664;2023-02-05T13:10:22;3.93;;;1.33;;
9906;SDS011;4992;51.628;6.664;2023-02-05T13:12:53;10.83;;;2.07;;
9906;SDS011;4992;51.628;6.664;2023-02-05T13:15:24;11.37;;;1.90;;
9906;SDS011;4992;51.628;6.664;2023-02-05T13:18:05;8.50;;;1.80;;
9906;SDS011;4992;51.628;6.664;2023-02-05T13:20:42;9.57;;;1.80;;
9906;SDS011;4992;51.628;6.664;2023-02-05T13:23:29;8.10;;;1.90;;
9906;SDS011;4992;51.628;6.664;2023-02-05T13:26:15;13.20;;;2.50;;
9906;SDS011;4992;51.628;6.664;2023-02-05T13:29:01;11.53;;;2.00;;
9906;SDS011;4992;51.628;6.664;2023-02-05T13:31:38;10.47;;;1.80;;
9906;SDS011;4992;51.628;6.664;2023-02-05T13:34:13;9.63;;;1.60;;
9906;SDS011;4992;51.628;6.664;2023-02-05T13:36:56;6.77;;;1.40;;
9906;SDS011;4992;51.628;6.664;2023-02-05T13:45:20;8.30;;;1.53;;
9906;SDS011;4992;51.628;6.664;2023-02-05T13:58:38;8.20;;;2.23;;
9906;SDS011;4992;51.628;6.664;2023-02-05T14:01:22;8.17;;;1.10;;
9906;SDS011;4992;51.628;6.664;2023-02-05T14:03:55;9.60;;;1.80;;
9906;SDS011;4992;51.628;6.664;2023-02-05T14:06:28;7.33;;;1.23;;
9906;SDS011;4992;51.628;6.664;2023-02-05T14:09:06;10.73;;;1.70;;
9906;SDS011;4992;51.628;6.664;2023-02-05T14:11:41;9.13;;;1.93;;
9906;SDS011;4992;51.628;6.664;2023-02-05T14:14:21;8.30;;;1.83;;
9906;SDS011;4992;51.628;6.664;2023-02-05T14:16:47;7.10;;;1.90;;
9906;SDS011;4992;51.628;6.664;2023-02-05T14:19:14;9.27;;;1.97;;
9906;SDS011;4992;51.628;6.664;2023-02-05T14:24:40;8.03;;;2.90;;
9906;SDS011;4992;51.628;6.664;2023-02-05T14:35:35;10.13;;;2.67;;
9906;SDS011;4992;51.628;6.664;2023-02-05T14:38:20;13.83;;;3.33;;
9906;SDS011;4992;51.628;6.664;2023-02-05T14:41:08;13.00;;;2.43;;
9906;SDS011;4992;51.628;6.664;2023-02-05T14:43:42;9.10;;;2.13;;
9906;SDS011;4992;51.628;6.664;2023-02-05T14:49:29;9.93;;;2.50;;
9906;SDS011;4992;51.628;6.664;2023-02-05T14:52:04;11.73;;;2.57;;
9906;SDS011;4992;51.628;6.664;2023-02-05T14:54:42;13.47;;;3.00;;
9906;SDS011;4992;51.628;6.664;2023-02-05T15:06:04;12.97;;;3.57;;
9906;SDS011;4992;51.628;6.664;2023-02-05T15:09:20;9.80;;;2.37;;
9906;SDS011;4992;51.628;6.664;2023-02-05T15:14:23;13.20;;;3.20;;
9906;SDS011;4992;51.628;6.664;2023-02-05T15:19:44;14.00;;;2.80;;
9906;SDS011;4992;51.628;6.664;2023-02-05T15:25:26;10.17;;;2.67;;
9906;SDS011;4992;51.628;6.664;2023-02-05T15:27:56;13.87;;;3.10;;
9906;SDS011;4992;51.628;6.664;2023-02-05T15:30:27;13.40;;;2.63;;
9906;SDS011;4992;51.628;6.664;2023-02-05T15:33:04;11.17;;;2.37;;
9906;SDS011;4992;51.628;6.664;2023-02-05T15:35:40;17.03;;;4.27;;
9906;SDS011;4992;51.628;6.664;2023-02-05T15:41:08;14.07;;;4.20;;
9906;SDS011;4992;51.628;6.664;2023-02-05T15:43:38;19.97;;;6.63;;
9906;SDS011;4992;51.628;6.664;2023-02-05T15:46:04;31.37;;;14.33;;
9906;SDS011;4992;51.628;6.664;2023-02-05T15:48:35;18.10;;;5.47;;
9906;SDS011;4992;51.628;6.664;2023-02-05T15:51:15;14.90;;;3.20;;
9906;SDS011;4992;51.628;6.664;2023-02-05T15:53:47;14.80;;;2.67;;
9906;SDS011;4992;51.628;6.664;2023-02-05T15:59:04;19.07;;;3.90;;
9906;SDS011;4992;51.628;6.664;2023-02-05T16:01:33;11.93;;;2.43;;
9906;SDS011;4992;51.628;6.664;2023-02-05T16:04:15;18.87;;;3.67;;
9906;SDS011;4992;51.628;6.664;2023-02-05T16:06:50;12.63;;;3.13;;
9906;SDS011;4992;51.628;6.664;2023-02-05T16:09:16;18.80;;;3.07;;
9906;SDS011;4992;51.628;6.664;2023-02-05T16:11:44;16.53;;;3.33;;
9906;SDS011;4992;51.628;6.664;2023-02-05T16:14:16;12.23;;;2.50;;
9906;SDS011;4992;51.628;6.664;2023-02-05T16:19:25;13.10;;;3.00;;
9906;SDS011;4992;51.628;6.664;2023-02-05T16:22:03;16.10;;;2.97;;
9906;SDS011;4992;51.628;6.664;2023-02-05T16:24:35;13.57;;;3.03;;
9906;SDS011;4992;51.628;6.664;2023-02-05T16:27:07;18.53;;;4.50;;
9906;SDS011;4992;51.628;6.664;2023-02-05T16:29:40;17.33;;;4.60;;
9906;SDS011;4992;51.628;6.664;2023-02-05T16:32:18;18.60;;;2.67;;
9906;SDS011;4992;51.628;6.664;2023-02-05T16:34:50;13.40;;;2.60;;
9906;SDS011;4992;51.628;6.664;2023-02-05T16:37:16;12.90;;;3.40;;
9906;SDS011;4992;51.628;6.664;2023-02-05T16:39:44;17.33;;;3.73;;
9906;SDS011;4992;51.628;6.664;2023-02-05T16:45:20;17.67;;;4.23;;
9906;SDS011;4992;51.628;6.664;2023-02-05T16:48:13;14.37;;;3.17;;
9906;SDS011;4992;51.628;6.664;2023-02-05T16:50:46;14.93;;;3.17;;
9906;SDS011;4992;51.628;6.664;2023-02-05T16:53:14;12.13;;;3.03;;
9906;SDS011;4992;51.628;6.664;2023-02-05T16:55:49;14.37;;;3.60;;
9906;SDS011;4992;51.628;6.664;2023-02-05T16:58:22;8.93;;;3.03;;
9906;SDS011;4992;51.628;6.664;2023-02-05T17:00:50;12.47;;;2.70;;
9906;SDS011;4992;51.628;6.664;2023-02-05T17:03:21;13.73;;;3.70;;
9906;SDS011;4992;51.628;6.664;2023-02-05T17:05:51;13.60;;;3.10;;
9906;SDS011;4992;51.628;6.664;2023-02-05T17:08:24;16.70;;;4.23;;
9906;SDS011;4992;51.628;6.664;2023-02-05T17:10:56;18.77;;;3.57;;
9906;SDS011;4992;51.628;6.664;2023-02-05T17:16:28;14.83;;;3.10;;
9906;SDS011;4992;51.628;6.664;2023-02-05T17:18:58;13.63;;;2.93;;
9906;SDS011;4992;51.628;6.664;2023-02-05T17:21:31;12.80;;;5.10;;
9906;SDS011;4992;51.628;6.664;2023-02-05T17:23:58;21.57;;;4.63;;
9906;SDS011;4992;51.628;6.664;2023-02-05T17:26:27;19.23;;;3.10;;
9906;SDS011;4992;51.628;6.664;2023-02-05T17:28:56;17.17;;;3.07;;
9906;SDS011;4992;51.628;6.664;2023-02-05T17:31:24;17.07;;;3.13;;
9906;SDS011;4992;51.628;6.664;2023-02-05T17:33:53;15.40;;;3.47;;
9906;SDS011;4992;51.628;6.664;2023-02-05T17:36:21;21.53;;;5.97;;
9906;SDS011;4992;51.628;6.664;2023-02-05T17:38:47;26.43;;;9.50;;
9906;SDS011;4992;51.628;6.664;2023-02-05T17:41:14;16.73;;;3.83;;
9906;SDS011;4992;51.628;6.664;2023-02-05T17:44:00;20.47;;;6.53;;
9906;SDS011;4992;51.628;6.664;2023-02-05T17:46:25;13.70;;;3.47;;
9906;SDS011;4992;51.628;6.664;2023-02-05T17:48:51;12.50;;;3.93;;
9906;SDS011;4992;51.628;6.664;2023-02-05T17:51:17;21.00;;;4.40;;